createdAt,value
2024-03-07T00:02:25.204Z,16.77
2024-03-07T00:05:29.074Z,16.37
2024-03-07T00:08:32.157Z,16.87
2024-03-07T00:11:35.703Z,16.83
2024-03-07T00:14:38.581Z,18.55
2024-03-07T00:17:42.609Z,18.23
2024-03-07T00:20:45.532Z,18.65
2024-03-07T00:23:50.132Z,17.85
2024-03-07T00:26:53.011Z,17.95
2024-03-07T00:29:56.348Z,15.83
2024-03-07T00:32:59.500Z,16.10
2024-03-07T00:36:02.898Z,14.65
2024-03-07T00:39:05.737Z,15.52
2024-03-07T00:42:09.685Z,14.90
2024-03-07T00:45:13.358Z,14.33
2024-03-07T00:48:16.476Z,13.57
2024-03-07T00:51:19.516Z,14.90
2024-03-07T00:54:22.655Z,15.05
2024-03-07T00:57:25.447Z,14.23
2024-03-07T01:00:29.703Z,14.23
2024-03-07T01:03:32.697Z,13.32
2024-03-07T01:06:42.164Z,14.65
2024-03-07T01:09:44.922Z,15.00
2024-03-07T01:12:47.916Z,14.67
2024-03-07T01:15:51.787Z,15.05
2024-03-07T01:18:55.652Z,15.60
2024-03-07T01:21:58.568Z,15.30
2024-03-07T01:25:01.762Z,15.50
2024-03-07T01:28:05.477Z,15.48
2024-03-07T01:31:09.381Z,13.82
2024-03-07T01:34:12.186Z,15.98
2024-03-07T01:37:15.540Z,16.85
2024-03-07T01:40:18.380Z,14.67
2024-03-07T01:43:22.785Z,15.57
2024-03-07T01:46:26.097Z,15.50
2024-03-07T01:49:29.482Z,15.38
2024-03-07T01:52:32.437Z,14.02
2024-03-07T01:55:35.677Z,15.50
2024-03-07T01:58:39.083Z,15.63
2024-03-07T02:01:42.145Z,15.43
2024-03-07T02:04:45.875Z,15.55
2024-03-07T02:07:49.211Z,15.45
2024-03-07T02:10:52.730Z,14.53
2024-03-07T02:13:55.880Z,14.50
2024-03-07T02:17:00.337Z,15.00
2024-03-07T02:20:06.363Z,15.43
2024-03-07T02:23:09.846Z,15.93
2024-03-07T02:26:12.730Z,15.43
2024-03-07T02:29:15.950Z,16.17
2024-03-07T02:32:19.011Z,15.68
2024-03-07T02:35:22.349Z,16.60
2024-03-07T02:38:25.560Z,15.90
2024-03-07T02:41:28.622Z,15.55
2024-03-07T02:44:33.208Z,17.20
2024-03-07T02:47:37.651Z,16.42
2024-03-07T02:50:40.810Z,15.02
2024-03-07T02:53:44.310Z,16.60
2024-03-07T02:56:47.746Z,17.05
2024-03-07T02:59:50.977Z,18.45
2024-03-07T03:02:54.438Z,18.67
2024-03-07T03:05:57.900Z,17.70
2024-03-07T03:09:00.994Z,24.43
2024-03-07T03:12:04.300Z,20.12
2024-03-07T03:15:08.549Z,19.75
2024-03-07T03:18:11.788Z,16.23
2024-03-07T03:21:14.563Z,15.38
2024-03-07T03:24:17.743Z,17.50
2024-03-07T03:27:20.379Z,16.35
2024-03-07T03:30:23.701Z,16.92
2024-03-07T03:33:27.490Z,15.65
2024-03-07T03:36:30.936Z,17.08
2024-03-07T03:39:34.910Z,15.33
2024-03-07T03:42:39.318Z,17.25
2024-03-07T03:45:42.130Z,16.67
2024-03-07T03:48:45.595Z,16.58
2024-03-07T03:51:48.948Z,16.73
2024-03-07T03:54:52.130Z,16.93
2024-03-07T03:57:55.011Z,15.88
2024-03-07T04:00:59.841Z,17.20
2024-03-07T04:04:03.075Z,16.95
2024-03-07T04:07:06.278Z,17.62
2024-03-07T04:10:10.953Z,17.97
2024-03-07T04:13:15.071Z,17.05
2024-03-07T04:16:18.362Z,15.82
2024-03-07T04:19:21.871Z,16.42
2024-03-07T04:22:25.072Z,15.85
2024-03-07T04:25:27.889Z,16.63
2024-03-07T04:28:31.198Z,14.65
2024-03-07T04:31:33.972Z,16.33
2024-03-07T04:34:38.297Z,16.25
2024-03-07T04:37:42.199Z,16.70
2024-03-07T04:40:45.753Z,17.35
2024-03-07T04:43:48.552Z,17.73
2024-03-07T04:46:56.562Z,17.40
2024-03-07T04:50:01.786Z,16.70
2024-03-07T04:53:05.146Z,16.90
2024-03-07T04:56:10.489Z,16.65
2024-03-07T04:59:14.695Z,16.20
2024-03-07T05:02:17.692Z,16.65
2024-03-07T05:05:24.680Z,17.40
2024-03-07T05:08:27.973Z,17.50
2024-03-07T05:11:32.458Z,16.00
2024-03-07T05:14:35.544Z,15.98
2024-03-07T05:17:40.529Z,16.33
2024-03-07T05:20:44.163Z,22.90
2024-03-07T05:23:50.526Z,22.90
2024-03-07T05:26:54.531Z,19.30
2024-03-07T05:29:59.803Z,22.17
2024-03-07T05:33:03.468Z,21.73
2024-03-07T05:36:17.582Z,18.67
2024-03-07T05:39:23.230Z,20.27
2024-03-07T05:42:27.247Z,19.95
2024-03-07T05:45:30.160Z,26.90
2024-03-07T05:48:33.962Z,22.55
2024-03-07T05:51:38.521Z,22.47
2024-03-07T05:54:41.845Z,20.27
2024-03-07T05:57:45.772Z,21.75
2024-03-07T06:00:51.133Z,19.37
2024-03-07T06:03:56.091Z,23.92
2024-03-07T06:06:59.852Z,22.87
2024-03-07T06:10:03.065Z,24.00
2024-03-07T06:13:10.831Z,25.27
2024-03-07T06:16:16.661Z,24.20
2024-03-07T06:19:19.665Z,26.48
2024-03-07T06:22:23.931Z,23.73
2024-03-07T06:25:52.515Z,20.30
2024-03-07T06:28:56.249Z,22.15
2024-03-07T06:32:00.162Z,19.73
2024-03-07T06:35:05.984Z,19.42
2024-03-07T06:38:10.652Z,17.75
2024-03-07T06:41:15.412Z,17.85
2024-03-07T06:44:24.921Z,18.25
2024-03-07T06:47:28.298Z,14.80
2024-03-07T06:50:37.603Z,13.53
2024-03-07T06:53:42.524Z,11.95
2024-03-07T06:56:46.174Z,11.68
2024-03-07T06:59:50.691Z,10.95
2024-03-07T07:02:59.367Z,11.23
2024-03-07T07:06:09.374Z,11.37
2024-03-07T07:09:12.878Z,8.90
2024-03-07T07:12:16.558Z,9.35
2024-03-07T07:15:20.184Z,8.70
2024-03-07T07:18:25.208Z,9.30
2024-03-07T07:21:28.889Z,9.00
2024-03-07T07:24:35.889Z,8.82
2024-03-07T07:27:41.350Z,7.87
2024-03-07T07:30:45.993Z,9.50
2024-03-07T07:33:49.308Z,8.63
2024-03-07T07:36:53.551Z,7.83
2024-03-07T07:39:56.344Z,9.68
2024-03-07T07:42:59.478Z,9.63
2024-03-07T07:46:02.604Z,8.43
2024-03-07T07:49:06.574Z,8.75
2024-03-07T07:52:10.113Z,7.90
2024-03-07T07:55:16.170Z,7.80
2024-03-07T07:58:19.511Z,6.60
2024-03-07T08:01:22.886Z,6.25
2024-03-07T08:04:26.557Z,4.78
2024-03-07T08:07:29.911Z,6.30
2024-03-07T08:10:35.443Z,5.03
2024-03-07T08:13:38.750Z,6.15
2024-03-07T08:16:42.186Z,6.47
2024-03-07T08:19:46.433Z,5.90
2024-03-07T08:22:54.146Z,6.28
2024-03-07T08:25:57.248Z,3.72
2024-03-07T08:29:00.561Z,6.53
2024-03-07T08:32:04.257Z,5.93
2024-03-07T08:35:10.693Z,6.87
2024-03-07T08:38:13.930Z,7.10
2024-03-07T08:41:19.704Z,7.60
2024-03-07T08:44:23.089Z,7.68
2024-03-07T08:47:26.875Z,7.20
2024-03-07T08:50:32.106Z,6.07
2024-03-07T08:53:36.286Z,6.32
2024-03-07T08:56:39.423Z,6.18
2024-03-07T08:59:42.628Z,6.12
2024-03-07T09:02:45.680Z,6.50
2024-03-07T09:05:49.235Z,5.97
2024-03-07T09:08:52.973Z,6.47
2024-03-07T09:11:56.551Z,6.35
2024-03-07T09:15:00.147Z,6.53
2024-03-07T09:18:05.470Z,3.83
2024-03-07T09:21:08.637Z,6.27
2024-03-07T09:24:11.871Z,4.95
2024-03-07T09:27:16.547Z,5.20
2024-03-07T09:30:26.097Z,4.93
2024-03-07T09:33:29.689Z,5.30
2024-03-07T09:36:33.004Z,4.97
2024-03-07T09:39:36.533Z,5.05
2024-03-07T09:42:47.342Z,5.80
2024-03-07T09:45:50.931Z,4.95
2024-03-07T09:48:57.809Z,4.10
2024-03-07T09:52:02.297Z,5.27
2024-03-07T09:55:07.377Z,5.18
2024-03-07T09:58:14.456Z,3.85
2024-03-07T10:01:22.433Z,4.30
2024-03-07T10:04:39.102Z,4.60
2024-03-07T10:07:50.978Z,4.90
2024-03-07T10:11:00.073Z,4.97
2024-03-07T10:14:24.592Z,5.12
2024-03-07T10:17:30.019Z,3.75
2024-03-07T10:20:33.196Z,3.87
2024-03-07T10:23:36.910Z,5.43
2024-03-07T10:26:40.076Z,2.90
2024-03-07T10:29:43.211Z,4.68
2024-03-07T10:32:47.595Z,4.72
2024-03-07T10:35:52.139Z,4.95
2024-03-07T10:38:56.737Z,4.27
2024-03-07T10:42:08.739Z,5.12
2024-03-07T10:45:12.322Z,4.40
2024-03-07T10:48:20.369Z,2.10
2024-03-07T10:51:41.033Z,2.35
2024-03-07T10:55:19.886Z,3.47
2024-03-07T10:58:38.811Z,4.68
2024-03-07T11:02:08.337Z,3.05
2024-03-07T11:05:14.168Z,4.50
2024-03-07T11:08:19.988Z,5.00
2024-03-07T11:11:24.894Z,3.03
2024-03-07T11:14:29.424Z,4.95
2024-03-07T11:17:42.302Z,4.97
2024-03-07T11:20:48.987Z,3.00
2024-03-07T11:23:52.439Z,4.90
2024-03-07T11:26:59.754Z,4.63
2024-03-07T11:30:10.818Z,5.12
2024-03-07T11:33:15.794Z,5.05
2024-03-07T11:36:46.678Z,3.53
2024-03-07T11:39:59.606Z,4.57
2024-03-07T11:43:06.285Z,4.53
2024-03-07T11:46:18.690Z,4.80
2024-03-07T11:49:22.165Z,5.03
2024-03-07T11:52:30.983Z,4.70
2024-03-07T11:55:47.446Z,4.53
2024-03-07T11:58:56.073Z,5.50
2024-03-07T12:02:02.864Z,5.43
2024-03-07T12:05:09.195Z,5.00
2024-03-07T12:08:13.378Z,4.62
2024-03-07T12:11:17.712Z,5.05
2024-03-07T12:14:21.086Z,4.83
2024-03-07T12:17:25.211Z,5.18
2024-03-07T12:20:34.961Z,4.57
2024-03-07T12:23:42.186Z,5.05
2024-03-07T12:26:45.276Z,5.15
2024-03-07T12:29:50.138Z,4.67
2024-03-07T12:32:54.049Z,4.03
2024-03-07T12:36:08.213Z,4.90
2024-03-07T12:39:25.884Z,4.93
2024-03-07T12:42:32.765Z,4.12
2024-03-07T12:45:36.335Z,4.57
2024-03-07T12:48:42.594Z,4.45
2024-03-07T12:51:46.131Z,4.15
2024-03-07T12:54:51.986Z,5.10
2024-03-07T12:57:56.042Z,6.32
2024-03-07T13:00:59.845Z,5.37
2024-03-07T13:04:02.675Z,4.82
2024-03-07T13:07:07.676Z,4.50
2024-03-07T13:10:11.492Z,5.07
2024-03-07T13:13:14.870Z,5.43
2024-03-07T13:16:19.195Z,4.73
2024-03-07T13:19:23.313Z,4.90
2024-03-07T13:22:26.363Z,5.15
2024-03-07T13:25:34.544Z,6.43
2024-03-07T13:28:37.436Z,7.75
2024-03-07T13:31:44.386Z,6.37
2024-03-07T13:34:47.969Z,13.80
2024-03-07T13:37:51.982Z,12.25
2024-03-07T13:40:55.014Z,7.53
2024-03-07T13:44:01.441Z,7.07
2024-03-07T13:47:06.897Z,7.50
2024-03-07T13:50:15.891Z,6.00
2024-03-07T13:53:30.878Z,6.00
2024-03-07T13:56:50.021Z,7.20
2024-03-07T14:00:24.016Z,6.50
2024-03-07T14:04:12.476Z,10.47
2024-03-07T14:07:52.874Z,10.02
2024-03-07T14:11:18.318Z,7.32
2024-03-07T14:14:57.038Z,10.15
2024-03-07T14:18:11.424Z,8.13
2024-03-07T14:21:38.935Z,9.27
2024-03-07T14:25:19.577Z,7.90
2024-03-07T14:28:47.068Z,7.28
2024-03-07T14:31:52.334Z,6.18
2024-03-07T14:35:23.712Z,6.50
2024-03-07T14:39:06.050Z,7.43
2024-03-07T14:42:13.640Z,7.65
2024-03-07T14:45:21.931Z,8.48
2024-03-07T14:48:25.135Z,9.40
2024-03-07T14:51:28.926Z,7.63
2024-03-07T14:54:32.437Z,8.77
2024-03-07T14:57:36.346Z,7.00
2024-03-07T15:00:55.184Z,7.93
2024-03-07T15:04:08.556Z,8.40
2024-03-07T15:07:11.844Z,9.13
2024-03-07T15:10:31.948Z,7.73
2024-03-07T15:13:36.061Z,7.35
2024-03-07T15:16:41.782Z,6.80
2024-03-07T15:19:44.990Z,6.72
2024-03-07T15:22:48.307Z,7.63
2024-03-07T15:25:51.606Z,7.50
2024-03-07T15:28:58.587Z,7.30
2024-03-07T15:32:04.232Z,12.60
2024-03-07T15:35:12.781Z,12.50
2024-03-07T15:38:18.521Z,11.37
2024-03-07T15:41:23.589Z,12.10
2024-03-07T15:44:27.253Z,7.85
2024-03-07T15:47:30.781Z,15.05
2024-03-07T15:50:34.199Z,23.05
2024-03-07T15:53:38.116Z,9.53
2024-03-07T15:56:41.199Z,11.03
2024-03-07T15:59:45.584Z,11.15
2024-03-07T16:02:49.008Z,10.82
2024-03-07T16:05:55.887Z,11.20
2024-03-07T16:08:59.114Z,10.23
2024-03-07T16:12:03.310Z,10.20
2024-03-07T16:15:07.005Z,11.15
2024-03-07T16:18:16.793Z,10.40
2024-03-07T16:21:20.309Z,9.30
2024-03-07T16:24:23.823Z,9.57
2024-03-07T16:27:26.587Z,9.70
2024-03-07T16:30:33.702Z,8.68
2024-03-07T16:33:37.238Z,8.60
2024-03-07T16:36:40.700Z,8.80
2024-03-07T16:39:44.844Z,8.93
2024-03-07T16:42:52.541Z,9.30
2024-03-07T16:45:56.039Z,8.48
2024-03-07T16:48:59.599Z,9.10
2024-03-07T16:52:02.527Z,9.20
2024-03-07T16:55:11.853Z,8.77
2024-03-07T16:58:16.058Z,10.80
2024-03-07T17:01:19.756Z,13.23
2024-03-07T17:04:22.674Z,17.67
2024-03-07T17:07:25.975Z,14.30
2024-03-07T17:10:36.340Z,11.63
2024-03-07T17:13:42.077Z,10.65
2024-03-07T17:16:45.030Z,9.80
2024-03-07T17:19:48.909Z,9.48
2024-03-07T17:22:56.762Z,9.77
2024-03-07T17:26:00.173Z,9.07
2024-03-07T17:29:02.992Z,9.73
2024-03-07T17:32:08.296Z,9.23
2024-03-07T17:35:12.500Z,9.80
2024-03-07T17:38:16.074Z,8.70
2024-03-07T17:41:19.438Z,9.30
2024-03-07T17:44:23.392Z,8.23
2024-03-07T17:47:30.116Z,8.20
2024-03-07T17:50:34.340Z,8.18
2024-03-07T17:53:38.842Z,8.70
2024-03-07T17:56:45.181Z,9.13
2024-03-07T17:59:49.621Z,7.80
2024-03-07T18:02:55.641Z,7.65
2024-03-07T18:05:59.957Z,8.30
2024-03-07T18:09:12.862Z,8.93
2024-03-07T18:12:16.415Z,10.37
2024-03-07T18:15:23.353Z,8.90
2024-03-07T18:18:30.319Z,11.30
2024-03-07T18:21:33.815Z,11.23
2024-03-07T18:24:36.943Z,13.55
2024-03-07T18:27:39.721Z,13.33
2024-03-07T18:30:43.851Z,13.37
2024-03-07T18:33:47.510Z,15.63
2024-03-07T18:36:55.480Z,21.55
2024-03-07T18:40:00.268Z,5.70
2024-03-07T18:43:13.464Z,10.63
2024-03-07T18:46:17.215Z,19.83
2024-03-07T18:49:24.188Z,7.43
2024-03-07T18:52:29.130Z,5.87
2024-03-07T18:55:32.858Z,4.28
2024-03-07T18:58:36.132Z,6.10
2024-03-07T19:01:39.890Z,5.97
2024-03-07T19:04:45.537Z,5.10
2024-03-07T19:07:50.214Z,4.62
2024-03-07T19:10:59.946Z,4.95
2024-03-07T19:14:03.893Z,5.50
2024-03-07T19:17:10.040Z,5.72
2024-03-07T19:20:19.684Z,5.60
2024-03-07T19:23:23.507Z,5.47
2024-03-07T19:26:27.659Z,6.85
2024-03-07T19:29:32.306Z,6.67
2024-03-07T19:32:36.442Z,6.30
2024-03-07T19:35:49.625Z,7.18
2024-03-07T19:38:54.344Z,6.30
2024-03-07T19:42:05.420Z,6.68
2024-03-07T19:45:15.437Z,5.83
2024-03-07T19:48:18.972Z,4.87
2024-03-07T19:51:26.430Z,6.10
2024-03-07T19:54:29.221Z,5.12
2024-03-07T19:57:34.064Z,5.18
2024-03-07T20:00:37.132Z,5.60
2024-03-07T20:03:40.663Z,5.15
2024-03-07T20:06:46.825Z,4.43
2024-03-07T20:09:50.549Z,5.47
2024-03-07T20:12:53.929Z,4.65
2024-03-07T20:16:01.983Z,4.80
2024-03-07T20:19:05.931Z,5.07
2024-03-07T20:22:09.309Z,6.07
2024-03-07T20:25:17.344Z,5.72
2024-03-07T20:28:21.590Z,5.03
2024-03-07T20:31:25.091Z,5.00
2024-03-07T20:34:28.608Z,5.28
2024-03-07T20:37:31.544Z,5.53
2024-03-07T20:40:35.773Z,6.15
2024-03-07T20:43:38.585Z,5.70
2024-03-07T20:46:42.646Z,6.03
2024-03-07T20:49:46.640Z,5.75
2024-03-07T20:52:56.196Z,5.18
2024-03-07T20:56:01.634Z,6.15
2024-03-07T20:59:08.041Z,6.00
2024-03-07T21:02:12.800Z,4.73
2024-03-07T21:05:17.149Z,4.43
2024-03-07T21:08:20.880Z,4.87
2024-03-07T21:11:29.612Z,4.65
2024-03-07T21:14:33.439Z,5.65
2024-03-07T21:17:40.231Z,4.67
2024-03-07T21:20:44.109Z,5.30
2024-03-07T21:23:47.995Z,4.65
2024-03-07T21:26:52.742Z,4.40
2024-03-07T21:29:59.238Z,4.68
2024-03-07T21:33:03.358Z,5.03
2024-03-07T21:36:09.908Z,4.40
2024-03-07T21:39:14.290Z,4.30
2024-03-07T21:42:19.940Z,4.65
2024-03-07T21:45:23.287Z,3.70
2024-03-07T21:48:26.723Z,4.30
2024-03-07T21:51:32.188Z,4.82
2024-03-07T21:54:36.383Z,4.78
2024-03-07T21:57:42.403Z,4.82
2024-03-07T22:00:47.834Z,4.50
2024-03-07T22:03:51.028Z,4.60
2024-03-07T22:06:56.938Z,4.12
2024-03-07T22:10:00.604Z,3.97
2024-03-07T22:13:03.562Z,4.57
2024-03-07T22:16:07.727Z,4.60
2024-03-07T22:19:10.591Z,4.00
2024-03-07T22:22:13.748Z,3.60
2024-03-07T22:25:19.075Z,3.87
2024-03-07T22:28:22.256Z,3.37
2024-03-07T22:31:25.173Z,3.65
2024-03-07T22:34:28.388Z,3.80
2024-03-07T22:37:31.247Z,3.90
2024-03-07T22:40:34.732Z,3.80
2024-03-07T22:43:38.256Z,4.10
2024-03-07T22:46:41.844Z,3.78
2024-03-07T22:49:46.003Z,3.63
2024-03-07T22:52:52.016Z,4.20
2024-03-07T22:55:54.937Z,3.70
2024-03-07T22:59:00.079Z,4.05
2024-03-07T23:02:03.826Z,3.78
2024-03-07T23:05:10.874Z,4.20
2024-03-07T23:08:15.005Z,3.97
2024-03-07T23:11:20.339Z,3.80
2024-03-07T23:14:25.914Z,4.32
2024-03-07T23:17:29.018Z,3.58
2024-03-07T23:20:32.269Z,3.83
2024-03-07T23:23:35.584Z,4.12
2024-03-07T23:26:41.964Z,4.45
2024-03-07T23:29:45.132Z,3.62
2024-03-07T23:32:49.128Z,3.35
2024-03-07T23:35:52.699Z,3.90
2024-03-07T23:38:58.643Z,3.65
2024-03-07T23:42:02.716Z,3.80
2024-03-07T23:45:06.613Z,3.35
2024-03-07T23:48:10.480Z,3.35
2024-03-07T23:51:13.387Z,4.13
2024-03-07T23:54:19.001Z,3.22
2024-03-07T23:57:22.434Z,3.35
